Time;durP1;ratioP1;P1;durP2;ratioP2;P2;SDS_P1;SDS_P2;PMS_P1;PMS_P2;Temp;Humidity;BMP_temperature;BMP_pressure;BME280_temperature;BME280_humidity;BME280_pressure;Samples;Min_cycle;Max_cycle;Signal;HPM_P1;HPM_P2
2021/01/31 00:02:16;;;;;;;;;;;25.30;61.00;;;;;;6240647;23;20314;-67
2021/01/31 00:04:49;;;;;;;;;;;25.20;61.00;;;;;;6240596;23;20291;-66
2021/01/31 00:07:16;;;;;;;;;;;25.20;61.10;;;;;;6239750;23;20303;-67
2021/01/31 00:09:42;;;;;;;;;;;25.20;61.10;;;;;;6240627;23;19899;-67
2021/01/31 00:12:09;;;;;;;;;;;25.20;61.10;;;;;;6238982;23;19899;-67
2021/01/31 00:14:35;;;;;;;;;;;25.20;61.10;;;;;;6240761;23;19911;-67
2021/01/31 00:17:01;;;;;;;;;;;25.20;61.10;;;;;;6238984;23;19899;-67
2021/01/31 00:19:27;;;;;;;;;;;25.20;61.10;;;;;;6240611;23;20293;-67
2021/01/31 00:21:57;;;;;;;;;;;25.20;61.20;;;;;;6239876;23;20316;-67
2021/01/31 00:24:23;;;;;;;;;;;25.20;61.20;;;;;;6239803;23;19978;-67
2021/01/31 00:26:49;;;;;;;;;;;25.20;61.10;;;;;;6240232;23;19900;-67
2021/01/31 00:29:15;;;;;;;;;;;25.20;61.10;;;;;;6239234;23;20270;-66
2021/01/31 00:31:43;;;;;;;;;;;25.20;61.20;;;;;;6240374;23;20311;-67
2021/01/31 00:34:09;;;;;;;;;;;25.20;61.20;;;;;;6239158;23;20002;-67
2021/01/31 00:36:35;;;;;;;;;;;25.20;61.20;;;;;;6240449;23;19900;-67
2021/01/31 00:39:02;;;;;;;;;;;25.20;61.20;;;;;;6239277;23;19899;-67
2021/01/31 00:41:28;;;;;;;;;;;25.20;61.20;;;;;;6239860;23;20232;-66
2021/01/31 00:43:54;;;;;;;;;;;25.10;61.20;;;;;;6240538;23;19910;-67
2021/01/31 00:46:20;;;;;;;;;;;25.10;61.30;;;;;;6239584;23;19959;-67
2021/01/31 00:48:46;;;;;;;;;;;25.10;61.20;;;;;;6240445;23;19899;-67
2021/01/31 00:51:12;;;;;;;;;;;25.10;61.30;;;;;;6239256;23;20381;-67
2021/01/31 00:53:38;;;;;;;;;;;25.10;61.30;;;;;;6239956;23;20278;-67
2021/01/31 00:56:04;;;;;;;;;;;25.10;61.30;;;;;;6239106;23;19975;-66
2021/01/31 00:58:30;;;;;;;;;;;25.10;61.40;;;;;;6241105;23;19907;-66
2021/01/31 01:00:56;;;;;;;;;;;25.10;61.60;;;;;;6240382;23;19978;-66
2021/01/31 01:03:22;;;;;;;;;;;25.00;61.60;;;;;;6240193;23;20373;-66
2021/01/31 01:05:48;;;;;;;;;;;25.10;61.80;;;;;;6241618;23;19899;-67
2021/01/31 01:08:15;;;;;;;;;;;25.00;61.80;;;;;;6241170;23;20010;-66
2021/01/31 01:10:41;;;;;;;;;;;25.00;61.90;;;;;;6242681;23;20322;-66
2021/01/31 01:13:07;;;;;;;;;;;25.00;62.10;;;;;;6241089;23;20020;-66
2021/01/31 01:15:33;;;;;;;;;;;25.00;62.10;;;;;;6242050;23;19908;-66
2021/01/31 01:17:59;;;;;;;;;;;25.00;62.20;;;;;;6241044;23;20231;-66
2021/01/31 01:20:26;;;;;;;;;;;25.00;62.30;;;;;;6242126;23;19903;-66
2021/01/31 01:22:53;;;;;;;;;;;25.00;62.30;;;;;;6241913;23;19910;-66
2021/01/31 01:25:19;;;;;;;;;;;25.00;62.30;;;;;;6241110;23;20256;-66
2021/01/31 01:27:45;;;;;;;;;;;25.00;62.40;;;;;;6242346;23;19982;-66
2021/01/31 01:30:14;;;;;;;;;;;25.00;62.50;;;;;;6241402;23;19899;-66
2021/01/31 01:32:40;;;;;;;;;;;24.90;62.60;;;;;;6242528;23;20613;-66
2021/01/31 01:35:07;;;;;;;;;;;24.90;62.60;;;;;;6236318;23;19908;-67
2021/01/31 01:37:33;;;;;;;;;;;24.90;62.70;;;;;;6242116;23;19900;-66
2021/01/31 01:39:59;;;;;;;;;;;24.90;62.80;;;;;;6240948;23;20312;-66
2021/01/31 01:42:25;;;;;;;;;;;24.90;62.80;;;;;;6241632;23;19903;-66
2021/01/31 01:44:51;;;;;;;;;;;24.90;62.80;;;;;;6240496;23;20379;-66
2021/01/31 01:47:20;;;;;;;;;;;24.90;62.80;;;;;;6240399;23;19970;-66
2021/01/31 01:49:47;;;;;;;;;;;24.90;62.80;;;;;;6242265;23;19904;-66
2021/01/31 01:52:36;;;;;;;;;;;24.90;62.90;;;;;;6240190;23;19906;-66
2021/01/31 01:55:12;;;;;;;;;;;24.90;63.00;;;;;;6228794;23;19955;-66
2021/01/31 01:57:41;;;;;;;;;;;24.90;63.20;;;;;;6241404;23;19904;-66
2021/01/31 02:00:07;;;;;;;;;;;24.90;63.20;;;;;;6240341;23;19911;-66
2021/01/31 02:02:41;;;;;;;;;;;24.90;63.20;;;;;;6241924;23;19904;-66
2021/01/31 02:05:11;;;;;;;;;;;24.90;63.30;;;;;;6240263;23;19907;-65
2021/01/31 02:07:37;;;;;;;;;;;24.90;63.40;;;;;;6241442;23;19926;-66
2021/01/31 02:10:04;;;;;;;;;;;24.90;63.50;;;;;;6241369;23;19935;-66
2021/01/31 02:12:30;;;;;;;;;;;24.90;63.70;;;;;;6240564;23;19958;-66
2021/01/31 02:15:00;;;;;;;;;;;24.90;63.60;;;;;;6240872;23;20005;-66
2021/01/31 02:17:41;;;;;;;;;;;24.90;63.70;;;;;;6239920;23;19957;-66
2021/01/31 02:20:26;;;;;;;;;;;24.80;63.70;;;;;;6241704;23;19934;-66
2021/01/31 02:22:55;;;;;;;;;;;24.90;63.80;;;;;;6240341;23;19903;-66
2021/01/31 02:25:21;;;;;;;;;;;24.80;63.70;;;;;;6240916;23;19911;-66
2021/01/31 02:27:59;;;;;;;;;;;24.80;63.70;;;;;;6241267;23;19944;-66
2021/01/31 02:30:40;;;;;;;;;;;24.80;63.80;;;;;;6240171;23;20327;-66
2021/01/31 02:33:24;;;;;;;;;;;24.80;63.80;;;;;;6240405;23;19950;-66
2021/01/31 02:35:53;;;;;;;;;;;24.80;63.80;;;;;;6240711;23;20213;-66
2021/01/31 02:38:27;;;;;;;;;;;24.80;63.80;;;;;;6240656;23;19926;-66
2021/01/31 02:40:57;;;;;;;;;;;24.80;63.90;;;;;;6241200;23;19935;-66
2021/01/31 02:43:52;;;;;;;;;;;24.80;63.90;;;;;;6240047;23;19907;-65
2021/01/31 02:46:18;;;;;;;;;;;24.80;63.90;;;;;;6238411;23;19900;-66
2021/01/31 02:48:52;;;;;;;;;;;24.80;63.80;;;;;;6240348;23;19910;-66
2021/01/31 02:51:26;;;;;;;;;;;24.80;64.40;;;;;;6240742;23;19910;-66
2021/01/31 02:53:56;;;;;;;;;;;24.80;64.50;;;;;;6240733;23;19950;-66
2021/01/31 02:56:36;;;;;;;;;;;24.80;63.70;;;;;;6240025;23;19903;-66
2021/01/31 02:59:14;;;;;;;;;;;24.80;63.70;;;;;;6241289;23;19954;-67
2021/01/31 03:01:40;;;;;;;;;;;24.80;63.70;;;;;;6239771;23;19939;-66
2021/01/31 03:04:16;;;;;;;;;;;24.70;63.70;;;;;;6240782;23;19903;-67
2021/01/31 03:06:46;;;;;;;;;;;24.70;63.70;;;;;;6240984;23;19947;-67
2021/01/31 03:09:16;;;;;;;;;;;24.70;63.70;;;;;;6240443;23;19903;-66
2021/01/31 03:11:49;;;;;;;;;;;24.80;63.80;;;;;;6241232;23;19907;-66
2021/01/31 03:14:15;;;;;;;;;;;24.70;63.80;;;;;;6238488;23;19972;-66
2021/01/31 03:16:52;;;;;;;;;;;24.70;64.40;;;;;;6241088;23;20196;-66
2021/01/31 03:19:23;;;;;;;;;;;24.70;63.70;;;;;;6240250;23;19900;-66
2021/01/31 03:21:51;;;;;;;;;;;24.70;63.60;;;;;;6241066;23;19926;-66
2021/01/31 03:24:30;;;;;;;;;;;24.70;63.70;;;;;;6240320;23;19899;-66
2021/01/31 03:26:56;;;;;;;;;;;24.70;63.60;;;;;;6239806;23;19978;-65
2021/01/31 03:29:22;;;;;;;;;;;24.70;63.60;;;;;;6239399;23;19904;-66
2021/01/31 03:31:51;;;;;;;;;;;24.70;63.60;;;;;;6239738;23;20741;-65
2021/01/31 03:34:23;;;;;;;;;;;24.70;63.50;;;;;;6240523;23;19911;-66
2021/01/31 03:36:51;;;;;;;;;;;24.70;63.40;;;;;;6240230;23;19900;-66
2021/01/31 03:39:18;;;;;;;;;;;24.70;63.40;;;;;;6239332;23;19978;-66
2021/01/31 03:41:44;;;;;;;;;;;24.70;63.30;;;;;;6240900;23;19899;-66
2021/01/31 03:44:10;;;;;;;;;;;24.70;63.40;;;;;;6239431;23;20220;-66
2021/01/31 03:46:42;;;;;;;;;;;24.70;63.40;;;;;;6241220;23;19914;-66
2021/01/31 03:49:16;;;;;;;;;;;24.70;63.40;;;;;;6240113;23;19899;-67
2021/01/31 03:51:42;;;;;;;;;;;24.60;63.30;;;;;;6240730;23;19903;-66
2021/01/31 03:54:09;;;;;;;;;;;24.60;63.20;;;;;;6240596;23;19914;-66
2021/01/31 03:56:50;;;;;;;;;;;24.60;63.20;;;;;;6240324;23;19907;-66
2021/01/31 03:59:19;;;;;;;;;;;24.60;63.20;;;;;;6240797;23;20004;-66
2021/01/31 04:01:46;;;;;;;;;;;24.60;63.20;;;;;;6239315;23;19957;-66
2021/01/31 04:04:19;;;;;;;;;;;24.60;63.10;;;;;;6240374;23;19934;-66
2021/01/31 04:06:53;;;;;;;;;;;24.60;63.10;;;;;;6239870;23;19953;-66
2021/01/31 04:09:19;;;;;;;;;;;24.60;63.10;;;;;;6240401;23;19946;-66
2021/01/31 04:11:45;;;;;;;;;;;24.60;63.10;;;;;;6240723;23;20209;-66
2021/01/31 04:14:21;;;;;;;;;;;24.60;63.00;;;;;;6239103;23;19914;-66
2021/01/31 04:16:48;;;;;;;;;;;24.60;63.00;;;;;;6240529;23;19946;-66
2021/01/31 04:19:15;;;;;;;;;;;24.60;63.00;;;;;;6239096;23;19907;-65
2021/01/31 04:21:41;;;;;;;;;;;24.60;63.00;;;;;;6241008;23;20331;-66
2021/01/31 04:24:07;;;;;;;;;;;24.60;63.20;;;;;;6239224;23;19957;-66
2021/01/31 04:26:34;;;;;;;;;;;24.50;63.10;;;;;;6240026;23;19906;-67
2021/01/31 04:29:00;;;;;;;;;;;24.60;63.20;;;;;;6240068;23;20216;-66
2021/01/31 04:31:27;;;;;;;;;;;24.60;63.40;;;;;;6239560;23;19896;-65
2021/01/31 04:33:53;;;;;;;;;;;24.60;63.40;;;;;;6240445;23;20297;-66
2021/01/31 04:36:20;;;;;;;;;;;24.60;63.40;;;;;;6238832;23;20311;-65
2021/01/31 04:38:46;;;;;;;;;;;24.60;63.50;;;;;;6240757;23;19903;-66
2021/01/31 04:41:13;;;;;;;;;;;24.50;63.30;;;;;;6242885;23;19949;-65
2021/01/31 04:43:39;;;;;;;;;;;24.50;63.40;;;;;;6244021;23;20058;-66
2021/01/31 04:46:07;;;;;;;;;;;24.60;63.50;;;;;;6243514;23;20345;-66
2021/01/31 04:48:36;;;;;;;;;;;24.60;63.60;;;;;;6243084;23;19900;-66
2021/01/31 04:51:03;;;;;;;;;;;24.60;63.60;;;;;;6244746;23;20019;-68
2021/01/31 04:53:47;;;;;;;;;;;24.60;63.70;;;;;;6242208;23;19904;-66
2021/01/31 04:56:16;;;;;;;;;;;24.50;64.00;;;;;;6243696;23;19907;-66
2021/01/31 04:58:54;;;;;;;;;;;24.50;64.20;;;;;;6243142;23;19935;-66
2021/01/31 05:01:27;;;;;;;;;;;24.50;64.40;;;;;;6242967;23;19946;-66
2021/01/31 05:03:53;;;;;;;;;;;24.50;64.80;;;;;;6243346;23;19907;-65
2021/01/31 05:06:20;;;;;;;;;;;24.50;65.20;;;;;;6242626;23;19907;-66
2021/01/31 05:08:48;;;;;;;;;;;24.50;65.30;;;;;;6243739;23;20239;-67
2021/01/31 05:11:14;;;;;;;;;;;24.50;65.30;;;;;;6242474;23;19966;-66
2021/01/31 05:13:43;;;;;;;;;;;24.50;65.50;;;;;;6243259;23;20239;-66
2021/01/31 05:16:11;;;;;;;;;;;24.50;65.50;;;;;;6242258;23;19910;-66
2021/01/31 05:18:39;;;;;;;;;;;24.50;65.40;;;;;;6243193;23;19907;-66
2021/01/31 05:21:07;;;;;;;;;;;24.50;65.50;;;;;;6243790;23;19907;-67
2021/01/31 05:23:35;;;;;;;;;;;24.50;65.70;;;;;;6243427;23;20307;-67
2021/01/31 05:26:01;;;;;;;;;;;24.50;65.70;;;;;;6244984;23;20224;-66
2021/01/31 05:28:28;;;;;;;;;;;24.50;65.70;;;;;;6244105;23;19952;-66
2021/01/31 05:30:54;;;;;;;;;;;24.60;65.70;;;;;;6245078;23;19906;-66
2021/01/31 05:33:23;;;;;;;;;;;24.60;65.50;;;;;;6244136;23;19906;-66
2021/01/31 05:35:51;;;;;;;;;;;24.60;65.40;;;;;;6244551;23;19903;-66
2021/01/31 05:38:34;;;;;;;;;;;24.60;65.30;;;;;;6245237;23;19899;-66
2021/01/31 05:41:00;;;;;;;;;;;24.60;65.40;;;;;;6244053;23;19900;-66
2021/01/31 05:43:26;;;;;;;;;;;24.60;65.20;;;;;;6245223;23;19906;-66
2021/01/31 05:45:53;;;;;;;;;;;24.70;65.10;;;;;;6243796;23;19899;-66
2021/01/31 05:48:19;;;;;;;;;;;24.70;64.90;;;;;;6244789;23;19907;-69
2021/01/31 05:50:45;;;;;;;;;;;24.70;64.80;;;;;;6243504;23;19906;-66
2021/01/31 05:53:28;;;;;;;;;;;24.70;64.60;;;;;;6243048;23;19903;-66
2021/01/31 05:56:13;;;;;;;;;;;24.70;64.60;;;;;;6243871;23;19912;-65
2021/01/31 05:58:39;;;;;;;;;;;24.70;64.40;;;;;;6241960;23;20070;-66
2021/01/31 06:01:06;;;;;;;;;;;24.80;64.60;;;;;;6243177;23;19911;-65
2021/01/31 06:03:33;;;;;;;;;;;24.80;64.70;;;;;;6242286;23;19974;-65
2021/01/31 06:06:09;;;;;;;;;;;24.80;64.50;;;;;;6242299;23;19974;-65
2021/01/31 06:08:36;;;;;;;;;;;24.80;64.40;;;;;;6240149;23;19914;-65
2021/01/31 06:11:07;;;;;;;;;;;24.80;64.20;;;;;;6240353;23;20300;-65
2021/01/31 06:13:34;;;;;;;;;;;24.80;64.60;;;;;;6241791;23;19910;-66
2021/01/31 06:16:03;;;;;;;;;;;24.90;64.80;;;;;;6240810;23;19899;-65
2021/01/31 06:18:33;;;;;;;;;;;24.80;65.10;;;;;;6242183;23;19906;-66
2021/01/31 06:21:28;;;;;;;;;;;24.90;65.30;;;;;;6241871;23;20319;-65
2021/01/31 06:23:54;;;;;;;;;;;24.90;65.10;;;;;;6214392;23;20216;-66
2021/01/31 06:26:28;;;;;;;;;;;24.90;65.10;;;;;;6243241;23;19907;-66
2021/01/31 06:28:59;;;;;;;;;;;24.90;65.00;;;;;;6241444;23;19899;-66
2021/01/31 06:31:45;;;;;;;;;;;25.00;64.90;;;;;;6238034;23;19957;-65
2021/01/31 06:34:30;;;;;;;;;;;24.90;64.80;;;;;;6240844;23;19919;-66
2021/01/31 06:36:56;;;;;;;;;;;25.00;64.90;;;;;;6240477;23;19899;-66
2021/01/31 06:39:32;;;;;;;;;;;25.00;65.10;;;;;;6242286;23;20054;-67
2021/01/31 06:41:58;;;;;;;;;;;25.00;65.10;;;;;;6241414;23;20074;-67
2021/01/31 06:44:27;;;;;;;;;;;25.00;65.20;;;;;;6243041;23;19907;-66
2021/01/31 06:47:12;;;;;;;;;;;25.00;65.60;;;;;;6241075;23;19907;-66
2021/01/31 06:49:46;;;;;;;;;;;25.00;66.20;;;;;;6241267;22;19988;-67
2021/01/31 06:52:13;;;;;;;;;;;24.90;66.80;;;;;;6242056;23;19900;-67
2021/01/31 06:54:48;;;;;;;;;;;24.90;67.10;;;;;;6241381;23;19954;-67
2021/01/31 06:57:30;;;;;;;;;;;25.00;67.00;;;;;;6242577;23;19927;-67
2021/01/31 06:59:56;;;;;;;;;;;25.00;66.50;;;;;;6241537;23;19931;-67
2021/01/31 07:02:22;;;;;;;;;;;25.00;67.60;;;;;;6242274;23;19961;-68
2021/01/31 07:05:17;;;;;;;;;;;24.90;68.20;;;;;;6241304;23;19900;-66
2021/01/31 07:07:50;;;;;;;;;;;24.90;68.50;;;;;;6220558;23;19974;-67
2021/01/31 07:10:16;;;;;;;;;;;24.80;68.60;;;;;;6241096;23;19931;-67
2021/01/31 07:12:55;;;;;;;;;;;24.80;68.60;;;;;;6241040;23;19903;-69
2021/01/31 07:15:21;;;;;;;;;;;24.80;68.50;;;;;;6241819;23;19977;-66
2021/01/31 07:17:53;;;;;;;;;;;24.90;68.30;;;;;;6241978;23;19910;-65
2021/01/31 07:20:25;;;;;;;;;;;24.90;68.30;;;;;;6241638;23;19974;-66
2021/01/31 07:22:57;;;;;;;;;;;24.90;68.20;;;;;;6242691;23;20030;-65
2021/01/31 07:25:28;;;;;;;;;;;25.00;67.60;;;;;;6240200;23;20387;-65
2021/01/31 07:27:56;;;;;;;;;;;25.00;67.20;;;;;;6241841;23;19903;-65
2021/01/31 07:30:28;;;;;;;;;;;25.10;67.30;;;;;;6241677;23;19953;-66
2021/01/31 07:33:12;;;;;;;;;;;25.10;67.30;;;;;;6242071;23;19983;-66
2021/01/31 07:35:45;;;;;;;;;;;25.10;67.20;;;;;;6241815;23;19907;-66
2021/01/31 07:38:15;;;;;;;;;;;25.10;67.00;;;;;;6239672;23;19959;-65
2021/01/31 07:40:43;;;;;;;;;;;25.00;67.20;;;;;;6242470;23;19903;-65
2021/01/31 07:43:10;;;;;;;;;;;25.00;67.40;;;;;;6241279;23;19900;-65
2021/01/31 07:45:36;;;;;;;;;;;25.00;67.60;;;;;;6242168;23;19899;-65
2021/01/31 07:48:39;;;;;;;;;;;25.00;67.60;;;;;;6241429;23;19899;-65
2021/01/31 07:51:06;;;;;;;;;;;25.00;67.40;;;;;;6147660;23;19900;-65
2021/01/31 07:53:34;;;;;;;;;;;25.10;67.30;;;;;;6223961;23;19906;-64
2021/01/31 07:56:19;;;;;;;;;;;25.10;67.20;;;;;;6240833;23;19950;-65
2021/01/31 07:58:45;;;;;;;;;;;25.10;67.90;;;;;;6241440;23;19906;-65
2021/01/31 08:01:12;;;;;;;;;;;25.10;67.20;;;;;;6241812;23;20235;-65
2021/01/31 08:03:39;;;;;;;;;;;25.00;67.30;;;;;;6241153;23;19903;-65
2021/01/31 08:06:07;;;;;;;;;;;25.00;67.40;;;;;;6241924;23;19917;-65
2021/01/31 08:08:43;;;;;;;;;;;25.00;67.40;;;;;;6240372;23;19899;-66
2021/01/31 08:11:11;;;;;;;;;;;25.10;67.40;;;;;;6240699;23;20220;-66
2021/01/31 08:13:39;;;;;;;;;;;25.10;67.30;;;;;;6240374;23;19956;-66
2021/01/31 08:16:23;;;;;;;;;;;25.10;67.10;;;;;;6240873;23;19914;-66
2021/01/31 08:19:04;;;;;;;;;;;25.20;67.10;;;;;;6241258;23;19904;-66
2021/01/31 08:22:05;;;;;;;;;;;25.20;67.10;;;;;;6241033;23;19953;-66
2021/01/31 08:24:50;;;;;;;;;;;25.20;66.90;;;;;;6241225;23;19910;-66
2021/01/31 08:27:36;;;;;;;;;;;25.30;67.10;;;;;;6241276;23;19945;-66
2021/01/31 08:30:12;;;;;;;;;;;25.30;67.50;;;;;;6240013;23;19935;-65
2021/01/31 08:32:57;;;;;;;;;;;25.30;68.00;;;;;;6240538;23;19982;-66
2021/01/31 08:35:43;;;;;;;;;;;25.30;68.10;;;;;;6240887;23;20224;-65
2021/01/31 08:38:27;;;;;;;;;;;25.30;67.80;;;;;;6239871;23;19911;-65
2021/01/31 08:41:01;;;;;;;;;;;25.20;68.70;;;;;;6241587;23;20316;-66
2021/01/31 08:43:48;;;;;;;;;;;25.20;68.60;;;;;;6240537;23;20319;-66
2021/01/31 08:46:14;;;;;;;;;;;25.30;68.30;;;;;;6240761;23;19974;-66
2021/01/31 08:49:00;;;;;;;;;;;25.30;68.10;;;;;;6241233;23;19986;-66
2021/01/31 08:51:46;;;;;;;;;;;25.30;68.00;;;;;;6240533;23;19900;-66
2021/01/31 08:54:12;;;;;;;;;;;25.20;67.90;;;;;;6242621;23;19914;-65
2021/01/31 08:57:04;;;;;;;;;;;25.20;67.90;;;;;;6241279;23;19906;-65
2021/01/31 08:59:56;;;;;;;;;;;25.30;67.60;;;;;;6240974;23;19906;-67
2021/01/31 09:02:42;;;;;;;;;;;25.30;67.60;;;;;;6241412;23;20343;-68
2021/01/31 09:05:11;;;;;;;;;;;25.30;67.60;;;;;;6239557;23;19931;-67
2021/01/31 09:07:57;;;;;;;;;;;25.30;67.50;;;;;;6242127;23;19903;-67
2021/01/31 09:10:23;;;;;;;;;;;25.30;67.50;;;;;;6241399;23;19978;-67
2021/01/31 09:13:09;;;;;;;;;;;25.40;67.60;;;;;;6239768;23;19927;-66
2021/01/31 09:15:55;;;;;;;;;;;25.40;67.30;;;;;;6241039;23;19908;-67
2021/01/31 09:18:41;;;;;;;;;;;25.40;67.30;;;;;;6241076;23;20015;-67
2021/01/31 09:21:39;;;;;;;;;;;25.50;67.30;;;;;;6241203;23;19978;-67
2021/01/31 09:24:25;;;;;;;;;;;25.50;67.40;;;;;;6241149;23;19953;-67
2021/01/31 09:27:12;;;;;;;;;;;25.50;67.60;;;;;;6240994;23;20339;-67
2021/01/31 09:29:38;;;;;;;;;;;25.40;67.80;;;;;;6243114;23;19954;-67
2021/01/31 09:32:09;;;;;;;;;;;25.40;68.00;;;;;;6243852;23;19986;-67
2021/01/31 09:34:36;;;;;;;;;;;25.40;68.00;;;;;;6241683;23;19907;-66
2021/01/31 09:37:03;;;;;;;;;;;25.40;68.10;;;;;;6243484;23;19899;-67
2021/01/31 09:39:29;;;;;;;;;;;25.40;68.00;;;;;;6242904;23;19899;-67
2021/01/31 09:41:55;;;;;;;;;;;25.30;68.30;;;;;;6243374;23;19945;-67
2021/01/31 09:44:21;;;;;;;;;;;25.30;68.30;;;;;;6242550;23;20224;-66
2021/01/31 09:46:48;;;;;;;;;;;25.30;68.20;;;;;;6243098;23;19906;-67
2021/01/31 09:49:22;;;;;;;;;;;25.40;68.00;;;;;;6244067;23;19899;-66
2021/01/31 09:51:48;;;;;;;;;;;25.40;67.70;;;;;;6242007;23;19979;-67
2021/01/31 09:54:32;;;;;;;;;;;25.50;67.60;;;;;;6243743;23;20304;-66
2021/01/31 09:57:00;;;;;;;;;;;25.50;67.60;;;;;;6241548;23;20343;-67
2021/01/31 09:59:31;;;;;;;;;;;25.50;67.50;;;;;;6243639;23;19910;-66
2021/01/31 10:02:05;;;;;;;;;;;25.60;68.10;;;;;;6241143;23;19917;-66
2021/01/31 10:04:32;;;;;;;;;;;25.60;67.30;;;;;;6241562;23;20337;-66
2021/01/31 10:07:05;;;;;;;;;;;25.60;67.00;;;;;;6242423;23;19899;-67
2021/01/31 10:09:33;;;;;;;;;;;25.60;66.30;;;;;;6240886;23;20339;-67
2021/01/31 10:12:23;;;;;;;;;;;25.70;66.00;;;;;;6242740;23;19915;-66
2021/01/31 10:14:50;;;;;;;;;;;25.80;65.70;;;;;;6242583;23;19907;-67
2021/01/31 10:17:16;;;;;;;;;;;25.80;65.50;;;;;;6242008;23;19899;-67
2021/01/31 10:19:42;;;;;;;;;;;25.80;65.30;;;;;;6242393;23;19907;-67
2021/01/31 10:22:12;;;;;;;;;;;25.80;65.10;;;;;;6240975;23;19903;-67
2021/01/31 10:24:44;;;;;;;;;;;25.90;65.30;;;;;;6242467;23;19946;-67
2021/01/31 10:27:10;;;;;;;;;;;25.90;65.10;;;;;;6241204;23;20267;-67
2021/01/31 10:29:37;;;;;;;;;;;25.90;65.10;;;;;;6242312;23;20300;-69
2021/01/31 10:32:21;;;;;;;;;;;25.90;64.90;;;;;;6240079;23;20456;-66
2021/01/31 10:34:47;;;;;;;;;;;26.00;65.40;;;;;;6241229;23;19998;-67
2021/01/31 10:37:15;;;;;;;;;;;25.90;65.40;;;;;;6241876;23;20271;-69
2021/01/31 10:39:42;;;;;;;;;;;25.90;65.50;;;;;;6240769;23;19900;-67
2021/01/31 10:42:08;;;;;;;;;;;26.00;65.70;;;;;;6242691;23;20247;-67
2021/01/31 10:44:34;;;;;;;;;;;26.00;65.50;;;;;;6241286;23;19903;-67
2021/01/31 10:47:00;;;;;;;;;;;26.00;65.40;;;;;;6242188;23;19927;-67
2021/01/31 10:49:26;;;;;;;;;;;26.10;65.10;;;;;;6241616;23;19938;-68
2021/01/31 10:51:53;;;;;;;;;;;26.20;65.00;;;;;;6240958;23;19900;-67
2021/01/31 10:54:20;;;;;;;;;;;26.20;64.90;;;;;;6242081;23;19914;-67
2021/01/31 10:56:46;;;;;;;;;;;26.20;64.80;;;;;;6240917;23;20319;-67
2021/01/31 10:59:12;;;;;;;;;;;26.30;64.60;;;;;;6242360;23;20235;-67
2021/01/31 11:01:42;;;;;;;;;;;26.30;64.50;;;;;;6240872;23;19911;-67
2021/01/31 11:04:08;;;;;;;;;;;26.30;64.50;;;;;;6241868;23;19907;-67
2021/01/31 11:06:34;;;;;;;;;;;26.30;64.70;;;;;;6242267;23;19903;-66
2021/01/31 11:09:00;;;;;;;;;;;26.20;64.90;;;;;;6241570;23;19900;-67
2021/01/31 11:11:26;;;;;;;;;;;26.10;65.00;;;;;;6241551;23;20299;-66
2021/01/31 11:13:52;;;;;;;;;;;26.10;65.20;;;;;;6241580;23;19911;-68
2021/01/31 11:16:18;;;;;;;;;;;26.10;65.50;;;;;;6243031;23;19899;-66
2021/01/31 11:18:45;;;;;;;;;;;26.00;65.60;;;;;;6240055;23;20286;-66
2021/01/31 11:21:15;;;;;;;;;;;25.90;65.80;;;;;;6241635;23;19906;-67
2021/01/31 11:23:41;;;;;;;;;;;25.90;66.00;;;;;;6240796;23;19900;-67
2021/01/31 11:26:07;;;;;;;;;;;25.90;66.00;;;;;;6241993;23;20014;-67
2021/01/31 11:28:33;;;;;;;;;;;25.90;66.10;;;;;;6241730;23;20227;-68
2021/01/31 11:31:00;;;;;;;;;;;25.90;66.10;;;;;;6240600;23;19923;-68
2021/01/31 11:33:26;;;;;;;;;;;25.90;66.00;;;;;;6241683;23;20229;-69
2021/01/31 11:36:12;;;;;;;;;;;25.90;66.00;;;;;;6236126;23;19957;-67
2021/01/31 11:39:06;;;;;;;;;;;26.00;65.90;;;;;;6238847;23;19904;-68
2021/01/31 11:41:52;;;;;;;;;;;26.00;65.90;;;;;;6240940;22;19945;-69
2021/01/31 11:44:19;;;;;;;;;;;25.90;65.80;;;;;;6239815;23;19945;-68
2021/01/31 11:46:45;;;;;;;;;;;25.90;65.90;;;;;;6240578;23;19900;-68
2021/01/31 11:49:11;;;;;;;;;;;25.90;66.60;;;;;;6240398;23;19995;-67
2021/01/31 11:51:37;;;;;;;;;;;25.90;67.20;;;;;;6242777;23;19961;-67
2021/01/31 11:54:03;;;;;;;;;;;25.90;67.40;;;;;;6238784;23;20282;-67
2021/01/31 11:56:29;;;;;;;;;;;25.90;67.50;;;;;;6239460;23;19949;-66
2021/01/31 11:58:55;;;;;;;;;;;25.80;67.50;;;;;;6241128;23;19986;-67
2021/01/31 12:01:22;;;;;;;;;;;25.90;67.10;;;;;;6238650;23;19912;-67
2021/01/31 12:03:49;;;;;;;;;;;25.80;66.60;;;;;;6240072;23;19903;-66
2021/01/31 12:06:17;;;;;;;;;;;25.90;66.30;;;;;;6240014;22;20456;-67
2021/01/31 12:08:43;;;;;;;;;;;26.00;65.90;;;;;;6241686;23;19899;-67
2021/01/31 12:11:09;;;;;;;;;;;26.00;65.80;;;;;;6239710;23;19943;-67
2021/01/31 12:13:36;;;;;;;;;;;26.00;65.50;;;;;;6241626;23;19935;-68
2021/01/31 12:16:02;;;;;;;;;;;26.10;65.40;;;;;;6240769;23;19922;-67
2021/01/31 12:18:28;;;;;;;;;;;26.10;65.20;;;;;;6241224;23;19982;-68
2021/01/31 12:20:55;;;;;;;;;;;26.10;65.20;;;;;;6240483;23;19911;-67
2021/01/31 12:23:21;;;;;;;;;;;26.20;65.20;;;;;;6240319;23;19899;-64
2021/01/31 12:25:47;;;;;;;;;;;26.30;65.00;;;;;;6240906;23;19907;-65
2021/01/31 12:28:16;;;;;;;;;;;26.40;64.70;;;;;;6239587;23;19903;-66
2021/01/31 12:30:42;;;;;;;;;;;26.40;64.70;;;;;;6240403;23;19900;-66
2021/01/31 12:33:09;;;;;;;;;;;26.50;64.50;;;;;;6240279;23;19963;-66
2021/01/31 12:35:35;;;;;;;;;;;26.50;64.30;;;;;;6238760;23;20596;-65
2021/01/31 12:38:02;;;;;;;;;;;26.60;64.30;;;;;;6241061;23;19900;-66
2021/01/31 12:40:30;;;;;;;;;;;26.60;64.00;;;;;;6239648;23;19911;-64
2021/01/31 12:42:57;;;;;;;;;;;26.70;63.70;;;;;;6240387;23;20306;-65
2021/01/31 12:45:23;;;;;;;;;;;26.70;63.00;;;;;;6240219;23;19903;-66
2021/01/31 12:47:50;;;;;;;;;;;26.70;62.80;;;;;;6240836;23;20307;-64
2021/01/31 12:50:17;;;;;;;;;;;26.80;62.60;;;;;;6238524;23;19903;-64
2021/01/31 12:52:43;;;;;;;;;;;26.80;62.40;;;;;;6240538;23;19900;-65
2021/01/31 12:55:10;;;;;;;;;;;26.80;62.40;;;;;;6239917;23;19915;-65
2021/01/31 12:57:37;;;;;;;;;;;26.80;62.90;;;;;;6239934;23;19899;-66
2021/01/31 13:00:05;;;;;;;;;;;26.90;63.00;;;;;;6241187;23;19911;-66
2021/01/31 13:02:32;;;;;;;;;;;26.80;62.80;;;;;;6240976;22;19907;-67
2021/01/31 13:04:58;;;;;;;;;;;26.80;62.80;;;;;;6243155;23;20346;-66
2021/01/31 13:07:24;;;;;;;;;;;26.80;62.60;;;;;;6241363;23;20286;-68
2021/01/31 13:09:50;;;;;;;;;;;26.80;62.40;;;;;;6242809;23;19953;-64
2021/01/31 13:12:16;;;;;;;;;;;26.90;62.40;;;;;;6241858;23;19899;-67
2021/01/31 13:14:42;;;;;;;;;;;26.80;62.30;;;;;;6242532;23;19984;-67
2021/01/31 13:17:08;;;;;;;;;;;26.80;62.20;;;;;;6242583;23;19978;-65
2021/01/31 13:19:35;;;;;;;;;;;26.70;62.10;;;;;;6241280;23;19907;-67
2021/01/31 13:22:04;;;;;;;;;;;26.80;62.40;;;;;;6243002;23;19969;-65
2021/01/31 13:24:30;;;;;;;;;;;26.70;62.70;;;;;;6241834;23;19978;-64
2021/01/31 13:26:56;;;;;;;;;;;26.70;62.90;;;;;;6243581;23;20358;-66
2021/01/31 13:29:22;;;;;;;;;;;26.70;63.20;;;;;;6242837;23;19900;-65
2021/01/31 13:31:48;;;;;;;;;;;26.70;63.30;;;;;;6242860;23;20315;-66
2021/01/31 13:34:14;;;;;;;;;;;26.50;63.40;;;;;;6243518;23;19986;-65
2021/01/31 13:36:41;;;;;;;;;;;26.50;63.80;;;;;;6242039;23;19903;-65
2021/01/31 13:39:07;;;;;;;;;;;26.50;63.60;;;;;;6243565;23;20670;-66
2021/01/31 13:41:34;;;;;;;;;;;26.50;63.80;;;;;;6241828;23;19899;-65
2021/01/31 13:44:01;;;;;;;;;;;26.50;64.00;;;;;;6243297;23;19899;-65
2021/01/31 13:46:27;;;;;;;;;;;26.50;64.00;;;;;;6242580;23;19899;-65
2021/01/31 13:48:53;;;;;;;;;;;26.50;64.00;;;;;;6243672;23;19899;-66
2021/01/31 13:51:19;;;;;;;;;;;26.50;64.10;;;;;;6243462;23;20314;-65
2021/01/31 13:53:45;;;;;;;;;;;26.50;63.90;;;;;;6242844;23;20025;-65
2021/01/31 13:56:12;;;;;;;;;;;26.50;63.80;;;;;;6244345;23;19900;-66
2021/01/31 13:58:38;;;;;;;;;;;26.50;63.90;;;;;;6241834;23;19903;-66
2021/01/31 14:01:05;;;;;;;;;;;26.50;64.00;;;;;;6243305;23;19958;-66
2021/01/31 14:03:31;;;;;;;;;;;26.50;63.90;;;;;;6242388;23;19975;-66
2021/01/31 14:05:57;;;;;;;;;;;26.50;64.00;;;;;;6243275;23;19934;-66
2021/01/31 14:08:23;;;;;;;;;;;26.50;64.00;;;;;;6242429;23;20390;-64
2021/01/31 14:10:49;;;;;;;;;;;26.50;64.30;;;;;;6242588;23;19899;-66
2021/01/31 14:13:15;;;;;;;;;;;26.50;64.20;;;;;;6243174;23;19978;-66
2021/01/31 14:15:41;;;;;;;;;;;26.50;64.20;;;;;;6242331;23;19918;-66
2021/01/31 14:18:08;;;;;;;;;;;26.50;64.30;;;;;;6243506;23;19979;-66
2021/01/31 14:20:54;;;;;;;;;;;26.50;64.30;;;;;;6242213;23;19950;-65
2021/01/31 14:23:42;;;;;;;;;;;26.50;64.60;;;;;;6241633;23;20275;-65
2021/01/31 14:26:28;;;;;;;;;;;26.40;64.80;;;;;;6242560;22;19903;-66
2021/01/31 14:29:14;;;;;;;;;;;26.30;65.50;;;;;;6241502;23;19899;-65
2021/01/31 14:31:40;;;;;;;;;;;26.40;65.90;;;;;;6243366;22;19911;-66
2021/01/31 14:34:07;;;;;;;;;;;26.40;66.40;;;;;;6241732;23;19908;-66
2021/01/31 14:36:33;;;;;;;;;;;26.40;66.60;;;;;;6242339;23;20296;-65